Time;durP1;ratioP1;P1;durP2;ratioP2;P2;SDS_P1;SDS_P2;PMS_P1;PMS_P2;Temp;Humidity;BMP_temperature;BMP_pressure;BME280_temperature;BME280_humidity;BME280_pressure;Samples;Min_cycle;Max_cycle;Signal;HPM_P1;HPM_P2
2022/12/28 00:00:33;;;;;;;7.60;5.00;;;4.80;1.00;;;;;;5038452;28;20885;-89
2022/12/28 00:03:13;;;;;;;8.25;4.35;;;4.80;1.00;;;;;;5041277;28;20240;-89
2022/12/28 00:05:42;;;;;;;7.57;4.35;;;4.80;1.00;;;;;;5030844;28;20246;-88
2022/12/28 00:08:12;;;;;;;12.73;5.93;;;4.80;1.00;;;;;;5030882;28;20254;-89
2022/12/28 00:10:44;;;;;;;6.88;4.40;;;4.90;1.00;;;;;;5031910;28;20289;-90
2022/12/28 00:13:19;;;;;;;6.10;4.10;;;4.90;1.00;;;;;;5033078;28;20298;-89
2022/12/28 00:16:13;;;;;;;9.95;4.50;;;4.90;1.00;;;;;;5024384;28;20245;-88
2022/12/28 00:18:43;;;;;;;6.85;3.67;;;5.00;1.00;;;;;;5030583;28;20248;-89
2022/12/28 00:21:15;;;;;;;7.28;3.88;;;5.00;1.00;;;;;;5034136;28;20236;-89
2022/12/28 00:23:44;;;;;;;6.00;3.78;;;5.00;1.00;;;;;;5017244;28;20699;-88
2022/12/28 00:26:13;;;;;;;11.18;3.90;;;5.10;1.00;;;;;;5061691;28;20211;-89
2022/12/28 00:28:42;;;;;;;6.68;3.60;;;5.10;1.00;;;;;;5022337;28;20746;-89
2022/12/28 00:31:18;;;;;;;7.95;3.92;;;5.20;1.00;;;;;;5050987;28;20230;-89
2022/12/28 00:33:56;;;;;;;8.20;3.53;;;5.20;1.00;;;;;;5041341;28;20241;-89
2022/12/28 00:36:23;;;;;;;7.80;3.80;;;5.20;1.00;;;;;;5018619;28;20714;-89
2022/12/28 00:38:54;;;;;;;7.68;3.40;;;5.20;1.00;;;;;;5036263;28;20226;-90
2022/12/28 00:41:22;;;;;;;6.75;3.25;;;5.20;1.00;;;;;;5037105;28;20328;-88
2022/12/28 00:43:51;;;;;;;7.47;3.50;;;5.10;1.00;;;;;;5042605;28;20231;-88
2022/12/28 00:46:23;;;;;;;6.00;3.40;;;5.10;1.00;;;;;;5041787;28;20303;-88
2022/12/28 00:48:52;;;;;;;6.22;3.55;;;5.20;1.00;;;;;;5040702;28;20215;-89
2022/12/28 00:51:29;;;;;;;7.25;4.43;;;5.20;1.00;;;;;;5040986;28;20256;-89
2022/12/28 00:54:01;;;;;;;6.28;3.58;;;5.20;1.00;;;;;;5053719;28;20321;-89
2022/12/28 00:56:33;;;;;;;10.35;4.35;;;5.20;1.00;;;;;;5022810;28;20223;-90
2022/12/28 00:59:02;;;;;;;7.78;3.72;;;5.30;1.00;;;;;;5029350;28;20241;-89
2022/12/28 01:01:40;;;;;;;7.35;4.10;;;5.20;1.00;;;;;;5044197;28;20237;-88
2022/12/28 01:04:19;;;;;;;7.50;3.30;;;5.20;1.00;;;;;;5039984;28;20217;-88
2022/12/28 01:06:52;;;;;;;6.53;3.63;;;5.20;1.00;;;;;;5039403;28;20226;-88
2022/12/28 01:09:36;;;;;;;5.80;3.20;;;5.20;1.00;;;;;;5041261;28;20662;-88
2022/12/28 01:12:03;;;;;;;9.43;4.38;;;5.30;1.00;;;;;;5042731;28;20238;-87
2022/12/28 01:14:32;;;;;;;5.60;3.15;;;5.40;1.00;;;;;;5043355;28;20226;-87
2022/12/28 01:17:03;;;;;;;11.85;4.32;;;5.40;1.00;;;;;;5036025;28;20219;-88
2022/12/28 01:19:34;;;;;;;9.15;3.30;;;5.40;1.00;;;;;;5039333;28;20235;-90
2022/12/28 01:22:13;;;;;;;8.90;4.05;;;5.40;1.00;;;;;;5019155;28;20240;-89
2022/12/28 01:24:44;;;;;;;5.03;3.20;;;5.50;1.00;;;;;;5037026;28;20238;-89
2022/12/28 01:27:22;;;;;;;12.30;4.68;;;5.40;1.00;;;;;;5045792;28;20356;-88
2022/12/28 01:29:52;;;;;;;7.15;3.47;;;5.40;1.00;;;;;;5046968;28;21318;-88
2022/12/28 01:32:22;;;;;;;8.85;4.30;;;5.40;1.00;;;;;;5046680;28;20302;-88
2022/12/28 01:34:51;;;;;;;8.52;3.60;;;5.40;1.00;;;;;;5036124;28;20242;-89
2022/12/28 01:37:29;;;;;;;6.85;3.40;;;5.40;1.00;;;;;;5040337;28;20225;-87
2022/12/28 01:40:10;;;;;;;6.68;3.50;;;5.40;1.00;;;;;;5039512;28;20262;-90
2022/12/28 01:42:53;;;;;;;7.10;3.47;;;5.30;1.00;;;;;;5046197;28;20242;-87
2022/12/28 01:45:30;;;;;;;6.13;3.72;;;5.30;1.00;;;;;;5035574;28;20229;-87
2022/12/28 01:48:21;;;;;;;9.20;4.30;;;5.30;1.00;;;;;;5040640;28;20218;-90
2022/12/28 01:51:12;;;;;;;7.45;4.30;;;5.30;1.00;;;;;;5008705;28;20245;-88
2022/12/28 01:53:43;;;;;;;7.22;3.70;;;5.20;1.00;;;;;;5023336;28;20214;-89
2022/12/28 01:56:12;;;;;;;6.03;3.50;;;5.20;1.00;;;;;;5040360;28;20233;-89
2022/12/28 01:58:42;;;;;;;10.25;4.68;;;5.20;1.00;;;;;;5021379;28;20242;-88
2022/12/28 02:01:11;;;;;;;11.82;4.43;;;5.20;1.00;;;;;;5029467;28;20237;-88
2022/12/28 02:06:30;;;;;;;6.25;3.47;;;5.00;1.00;;;;;;5048890;28;21225;-88
2022/12/28 02:09:13;;;;;;;5.68;3.17;;;4.90;1.00;;;;;;5057975;28;20323;-89
2022/12/28 02:11:50;;;;;;;7.25;3.80;;;4.90;1.00;;;;;;5048659;28;20240;-89
2022/12/28 02:14:22;;;;;;;7.22;4.22;;;4.90;1.00;;;;;;5048918;28;20233;-88
2022/12/28 02:16:59;;;;;;;7.53;4.10;;;4.80;1.00;;;;;;5033555;28;21233;-87
2022/12/28 02:19:51;;;;;;;8.27;4.55;;;4.70;1.00;;;;;;5025552;28;20384;-89
2022/12/28 02:22:59;;;;;;;7.30;3.60;;;4.70;1.00;;;;;;5060788;28;20244;-88
2022/12/28 02:26:22;;;;;;;8.80;4.97;;;4.60;1.00;;;;;;5052034;28;20238;-89
2022/12/28 02:29:32;;;;;;;5.60;3.67;;;4.60;1.00;;;;;;4965670;28;20233;-89
2022/12/28 02:32:11;;;;;;;9.95;3.72;;;4.50;1.00;;;;;;5050737;28;20244;-87
2022/12/28 02:35:01;;;;;;;6.60;3.75;;;4.50;1.00;;;;;;5066578;28;20226;-88
2022/12/28 02:37:44;;;;;;;7.50;3.95;;;4.50;1.00;;;;;;5061503;28;20217;-88
2022/12/28 02:40:54;;;;;;;8.05;4.45;;;4.50;1.00;;;;;;5049478;28;20312;-88
2022/12/28 02:43:22;;;;;;;7.13;4.32;;;4.40;1.00;;;;;;5038402;28;20226;-89
2022/12/28 02:51:49;;;;;;;8.25;3.92;;;4.40;1.00;;;;;;5064955;28;20241;-89
2022/12/28 02:58:03;;;;;;;7.93;4.50;;;4.40;1.00;;;;;;5057518;28;20242;-88
2022/12/28 03:00:44;;;;;;;7.97;3.70;;;4.40;1.00;;;;;;5038311;28;20243;-88
2022/12/28 03:03:42;;;;;;;9.13;5.47;;;4.40;1.00;;;;;;5061911;28;20283;-88
2022/12/28 03:09:32;;;;;;;7.68;4.90;;;4.40;1.00;;;;;;5037206;28;20245;-90
2022/12/28 03:12:18;;;;;;;7.93;4.55;;;4.30;1.00;;;;;;5036354;28;20273;-89
2022/12/28 03:15:13;;;;;;;7.07;4.63;;;4.30;1.00;;;;;;5041078;28;20269;-90
2022/12/28 03:32:14;;;;;;;6.35;4.05;;;4.20;1.00;;;;;;5053970;28;20324;-89
2022/12/28 03:34:43;;;;;;;8.98;5.43;;;4.20;1.00;;;;;;5060291;28;20237;-90
2022/12/28 03:37:40;;;;;;;6.07;4.38;;;4.20;1.00;;;;;;5069755;28;20236;-89
2022/12/28 03:40:43;;;;;;;11.52;4.43;;;4.20;1.00;;;;;;5064042;28;20210;-90
2022/12/28 03:46:15;;;;;;;6.97;4.72;;;4.20;1.00;;;;;;5065985;28;20225;-89
2022/12/28 03:48:54;;;;;;;8.00;4.10;;;4.20;1.00;;;;;;5064073;28;20259;-89
2022/12/28 03:51:32;;;;;;;7.80;3.92;;;4.20;1.00;;;;;;5062629;28;20264;-91
2022/12/28 03:54:10;;;;;;;7.28;4.10;;;4.20;1.00;;;;;;5038068;28;21088;-89
2022/12/28 03:56:52;;;;;;;8.00;3.67;;;4.20;1.00;;;;;;5052578;28;20242;-89
2022/12/28 03:59:33;;;;;;;6.32;3.28;;;4.20;1.00;;;;;;5060036;28;20596;-90
2022/12/28 04:02:02;;;;;;;7.85;3.95;;;4.20;1.00;;;;;;5060049;28;20241;-88
2022/12/28 04:04:34;;;;;;;5.63;3.58;;;4.20;1.00;;;;;;5075661;28;20240;-89
2022/12/28 04:07:02;;;;;;;9.18;4.25;;;4.20;1.00;;;;;;5040631;28;20221;-88
2022/12/28 04:09:45;;;;;;;;;;;;;;;;;;;;;
2022/12/28 04:12:24;;;;;;;6.88;3.40;;;4.20;1.00;;;;;;5067641;28;40071;-88
2022/12/28 04:15:03;;;;;;;5.80;3.60;;;4.20;1.00;;;;;;5071243;28;20275;-89
2022/12/28 04:17:33;;;;;;;8.43;3.58;;;4.20;1.00;;;;;;5085441;28;20324;-89
2022/12/28 04:20:02;;;;;;;7.30;3.67;;;4.20;1.00;;;;;;5061149;28;20297;-87
2022/12/28 04:22:33;;;;;;;5.32;3.40;;;4.20;1.00;;;;;;5071723;28;20221;-89
2022/12/28 04:25:05;;;;;;;5.40;3.55;;;4.30;1.00;;;;;;5069558;28;20236;-89
2022/12/28 04:27:44;;;;;;;7.25;3.70;;;4.20;1.00;;;;;;5069645;28;20475;-88
2022/12/28 04:30:14;;;;;;;5.57;3.65;;;4.20;1.00;;;;;;5052421;28;20237;-87
2022/12/28 04:32:44;;;;;;;5.78;3.25;;;4.20;1.00;;;;;;5054315;28;20337;-89
2022/12/28 04:35:14;;;;;;;6.25;2.92;;;4.30;1.00;;;;;;5056289;28;20237;-90
2022/12/28 04:37:42;;;;;;;6.45;3.25;;;4.30;1.00;;;;;;5058313;28;20253;-89
2022/12/28 04:40:14;;;;;;;5.53;2.83;;;4.20;1.00;;;;;;5059006;28;20209;-89
2022/12/28 04:43:00;;;;;;;7.82;3.42;;;4.30;1.00;;;;;;5038643;28;20241;-90
2022/12/28 04:45:35;;;;;;;5.55;3.33;;;4.30;1.00;;;;;;5057384;28;20237;-89
2022/12/28 04:48:02;;;;;;;6.25;3.28;;;4.30;1.00;;;;;;5055448;28;20251;-89
2022/12/28 04:50:42;;;;;;;5.35;3.00;;;4.30;1.00;;;;;;5048721;28;20218;-89
2022/12/28 04:53:12;;;;;;;8.27;3.70;;;4.40;1.00;;;;;;5057058;28;20224;-90
2022/12/28 04:55:45;;;;;;;5.72;3.20;;;4.40;1.00;;;;;;5059250;28;20289;-89
2022/12/28 04:58:21;;;;;;;7.93;3.00;;;4.40;1.00;;;;;;5060334;28;20277;-90
2022/12/28 05:37:24;;;;;;;5.83;2.60;;;4.50;1.00;;;;;;5030395;27;2379669;-83
2022/12/28 05:39:51;;;;;;;5.57;3.15;;;4.50;1.00;;;;;;5171526;22;20217;-84
2022/12/28 05:42:31;;;;;;;5.20;2.90;;;4.60;1.00;;;;;;5064264;28;20248;-81
2022/12/28 05:45:05;;;;;;;10.75;3.40;;;4.60;1.00;;;;;;5071009;28;20223;-85
2022/12/28 05:47:34;;;;;;;5.07;2.80;;;4.60;1.00;;;;;;5078296;28;20243;-86
2022/12/28 05:50:02;;;;;;;7.57;2.80;;;4.60;1.00;;;;;;5079751;28;20232;-85
2022/12/28 05:52:31;;;;;;;6.10;2.47;;;4.60;1.00;;;;;;5073792;28;20221;-86
2022/12/28 05:55:05;;;;;;;4.97;2.60;;;4.60;1.00;;;;;;5076262;28;20230;-86
2022/12/28 05:57:32;;;;;;;4.15;2.58;;;4.60;1.00;;;;;;5072003;28;20232;-86
2022/12/28 06:00:24;;;;;;;5.30;2.72;;;4.60;1.00;;;;;;5086698;27;20233;-84
2022/12/28 06:02:54;;;;;;;5.15;2.15;;;4.60;1.00;;;;;;5060294;28;20233;-84
2022/12/28 06:05:22;;;;;;;9.23;2.83;;;4.70;1.00;;;;;;5059681;28;20221;-84
2022/12/28 06:07:53;;;;;;;7.00;2.70;;;4.70;1.00;;;;;;5072747;28;20237;-85
2022/12/28 06:10:27;;;;;;;5.70;2.65;;;4.70;1.00;;;;;;5075343;28;20232;-82
2022/12/28 06:12:54;;;;;;;9.82;3.53;;;4.70;1.00;;;;;;5073918;28;21109;-80
2022/12/28 06:15:26;;;;;;;6.32;2.53;;;4.70;1.00;;;;;;5076911;28;20216;-82
2022/12/28 06:17:53;;;;;;;5.15;2.40;;;4.80;1.00;;;;;;5077377;28;20294;-81
2022/12/28 06:20:24;;;;;;;5.93;2.35;;;4.80;1.00;;;;;;5077296;28;20241;-87
2022/12/28 06:22:55;;;;;;;5.75;2.58;;;4.80;1.00;;;;;;5076018;28;20336;-86
2022/12/28 06:25:24;;;;;;;5.93;2.85;;;4.80;1.00;;;;;;5044880;28;20581;-86
2022/12/28 06:27:51;;;;;;;8.38;3.30;;;4.80;1.00;;;;;;5056655;28;20242;-84
2022/12/28 06:30:23;;;;;;;4.88;2.35;;;4.80;1.00;;;;;;5058561;28;20237;-86
2022/12/28 06:32:51;;;;;;;4.10;1.95;;;4.90;1.00;;;;;;5060224;28;20291;-90
2022/12/28 06:35:23;;;;;;;6.20;2.38;;;4.80;1.00;;;;;;5055164;28;20208;-82
2022/12/28 06:37:52;;;;;;;5.07;3.00;;;4.80;1.00;;;;;;5057708;28;20233;-89
2022/12/28 06:40:25;;;;;;;5.57;2.40;;;4.90;1.00;;;;;;5034720;28;20305;-83
2022/12/28 06:43:01;;;;;;;5.30;2.20;;;4.90;1.00;;;;;;5042379;28;20253;-81
2022/12/28 06:45:31;;;;;;;5.82;2.70;;;5.00;1.00;;;;;;5055355;28;20711;-81
2022/12/28 06:48:04;;;;;;;7.50;2.55;;;5.00;1.00;;;;;;5038284;28;20351;-83
2022/12/28 06:50:33;;;;;;;4.07;2.00;;;5.00;1.00;;;;;;5032760;28;20278;-87
2022/12/28 06:53:03;;;;;;;5.80;2.95;;;4.90;1.00;;;;;;5043850;28;20239;-86
2022/12/28 06:55:53;;;;;;;6.97;2.85;;;4.80;1.00;;;;;;5021825;28;20257;-84
2022/12/28 06:58:23;;;;;;;6.35;2.75;;;4.70;1.00;;;;;;5039095;28;20294;-84
2022/12/28 07:00:50;;;;;;;6.05;2.80;;;4.60;1.00;;;;;;5041043;28;20221;-85
2022/12/28 07:03:28;;;;;;;5.22;2.47;;;4.50;1.00;;;;;;5030101;28;20325;-83
2022/12/28 07:06:03;;;;;;;6.57;3.08;;;4.40;1.00;;;;;;5035210;28;20230;-85
2022/12/28 07:08:32;;;;;;;8.73;3.78;;;4.40;1.00;;;;;;5046099;28;20234;-84
2022/12/28 07:11:21;;;;;;;7.80;3.65;;;4.30;1.00;;;;;;5040787;28;20226;-85
2022/12/28 07:13:52;;;;;;;6.55;3.25;;;4.30;1.00;;;;;;5024137;28;20258;-86
2022/12/28 07:16:32;;;;;;;11.55;3.63;;;4.30;1.00;;;;;;5036415;28;20230;-81
2022/12/28 07:19:14;;;;;;;5.70;3.08;;;4.30;1.00;;;;;;5029397;28;20305;-83
2022/12/28 07:21:44;;;;;;;5.35;2.88;;;4.20;1.00;;;;;;5044452;28;20227;-82
2022/12/28 07:24:11;;;;;;;11.38;5.43;;;4.20;1.00;;;;;;5042487;28;20266;-82
2022/12/28 07:26:43;;;;;;;7.43;3.30;;;4.20;1.00;;;;;;5033014;28;20269;-81
2022/12/28 07:29:10;;;;;;;8.65;3.67;;;4.30;1.00;;;;;;5031113;28;20266;-80
2022/12/28 07:31:43;;;;;;;6.13;3.72;;;4.30;1.00;;;;;;5033601;28;20283;-81
2022/12/28 07:34:12;;;;;;;6.00;3.92;;;4.30;1.00;;;;;;5037788;28;20250;-81
2022/12/28 07:36:45;;;;;;;7.22;3.05;;;4.40;1.00;;;;;;5030234;28;20235;-81
2022/12/28 07:39:12;;;;;;;5.30;3.20;;;4.30;1.00;;;;;;5033793;28;20436;-80
2022/12/28 07:41:43;;;;;;;5.38;3.10;;;4.40;1.00;;;;;;5036193;28;20308;-80
2022/12/28 07:44:12;;;;;;;9.73;3.90;;;4.40;1.00;;;;;;5032749;28;20242;-80
2022/12/28 07:46:43;;;;;;;6.07;2.83;;;4.40;1.00;;;;;;5039340;28;20964;-82
2022/12/28 07:49:10;;;;;;;8.63;3.80;;;4.50;1.00;;;;;;5035217;28;20242;-82
2022/12/28 07:51:43;;;;;;;6.93;3.55;;;4.50;1.00;;;;;;5029676;28;20247;-82
2022/12/28 07:54:13;;;;;;;6.95;3.83;;;4.50;1.00;;;;;;5028738;28;20325;-81
2022/12/28 07:56:43;;;;;;;7.28;3.70;;;4.50;1.00;;;;;;5030666;28;20333;-83
2022/12/28 07:59:12;;;;;;;5.80;3.20;;;4.60;1.00;;;;;;5027365;28;20242;-81
2022/12/28 08:01:43;;;;;;;4.40;3.03;;;4.60;1.00;;;;;;5019945;28;20244;-81
2022/12/28 08:04:13;;;;;;;6.85;3.85;;;4.60;1.00;;;;;;5028232;28;20262;-80
2022/12/28 08:06:47;;;;;;;7.53;4.15;;;4.60;1.00;;;;;;5032150;28;20744;-81
2022/12/28 08:09:22;;;;;;;8.93;3.00;;;4.60;1.00;;;;;;5018052;28;20250;-80
2022/12/28 08:11:54;;;;;;;6.82;3.47;;;4.70;1.00;;;;;;5032807;28;20234;-81
2022/12/28 08:14:24;;;;;;;8.38;3.38;;;4.70;1.00;;;;;;5031693;28;21136;-79
2022/12/28 08:16:52;;;;;;;5.60;3.25;;;4.70;1.00;;;;;;5037977;28;20218;-81
2022/12/28 08:19:24;;;;;;;6.10;2.90;;;4.70;1.00;;;;;;5035734;28;20230;-80
2022/12/28 08:21:51;;;;;;;9.07;3.85;;;4.70;1.00;;;;;;5037463;28;20230;-80
2022/12/28 08:24:22;;;;;;;10.35;4.80;;;4.70;1.00;;;;;;5024204;28;20235;-80
2022/12/28 08:26:52;;;;;;;4.50;3.15;;;4.70;1.00;;;;;;5034749;28;20238;-81
2022/12/28 08:29:22;;;;;;;7.50;4.10;;;4.80;1.00;;;;;;5036268;28;20326;-82
2022/12/28 08:31:52;;;;;;;7.15;3.47;;;4.80;1.00;;;;;;5032035;28;20242;-81
2022/12/28 08:34:25;;;;;;;4.82;3.75;;;4.90;1.00;;;;;;5032146;28;20230;-79
2022/12/28 08:36:54;;;;;;;5.88;3.22;;;5.00;1.00;;;;;;5027558;28;20221;-85
2022/12/28 08:39:25;;;;;;;9.10;3.63;;;5.00;1.00;;;;;;5029521;28;20253;-80
2022/12/28 08:42:07;;;;;;;;;;;;;;;;;;;;;
2022/12/28 08:44:34;;;;;;;5.07;3.22;;;5.10;1.00;;;;;;5022038;28;50770;-82
2022/12/28 08:47:01;;;;;;;8.70;3.60;;;5.10;1.00;;;;;;5030092;28;20274;-81
2022/12/28 08:49:28;;;;;;;8.18;3.35;;;5.10;1.00;;;;;;5032632;28;20301;-81
2022/12/28 08:51:55;;;;;;;5.93;3.28;;;5.20;1.00;;;;;;5031239;28;20234;-82
2022/12/28 08:54:26;;;;;;;7.22;3.70;;;5.20;1.00;;;;;;5035282;28;20273;-80
2022/12/28 08:56:55;;;;;;;6.75;2.90;;;5.20;1.00;;;;;;5033885;28;20243;-81
2022/12/28 08:59:22;;;;;;;4.63;3.00;;;5.30;1.00;;;;;;5033215;28;20239;-81
2022/12/28 09:01:50;;;;;;;5.18;2.58;;;5.30;1.00;;;;;;5034450;28;21031;-81
2022/12/28 09:04:19;;;;;;;5.63;3.53;;;5.30;1.00;;;;;;5034120;28;20285;-86
2022/12/28 09:06:47;;;;;;;4.78;2.70;;;5.40;1.00;;;;;;5028943;28;20810;-80
2022/12/28 09:09:21;;;;;;;5.00;3.15;;;5.40;1.00;;;;;;5033069;28;20436;-83
2022/12/28 09:11:55;;;;;;;8.63;3.08;;;5.40;1.00;;;;;;5034839;28;20257;-82
2022/12/28 09:14:25;;;;;;;8.23;2.75;;;5.40;1.00;;;;;;5009006;28;20223;-81
2022/12/28 09:16:55;;;;;;;5.28;3.13;;;5.50;1.00;;;;;;5032785;28;20258;-82
2022/12/28 09:19:27;;;;;;;5.47;2.45;;;5.60;1.00;;;;;;5024490;28;20253;-82
2022/12/28 09:21:54;;;;;;;8.13;3.05;;;5.60;1.00;;;;;;5028556;28;20461;-83
2022/12/28 09:24:31;;;;;;;4.82;2.72;;;5.60;1.00;;;;;;5027030;28;21091;-81
2022/12/28 09:27:08;;;;;;;6.38;3.13;;;5.70;1.00;;;;;;5034388;28;20231;-87
2022/12/28 09:29:47;;;;;;;6.63;3.22;;;5.70;1.00;;;;;;5041777;28;20305;-86
2022/12/28 09:35:32;;;;;;;4.20;2.47;;;5.80;1.00;;;;;;5016132;28;20325;-84
2022/12/28 09:38:05;;;;;;;4.90;2.78;;;5.80;1.00;;;;;;5034962;28;21159;-85
2022/12/28 09:40:35;;;;;;;4.57;2.92;;;5.90;1.00;;;;;;5025607;28;20243;-84
2022/12/28 09:43:08;;;;;;;5.10;2.90;;;5.80;1.00;;;;;;5030992;28;21536;-84
2022/12/28 09:45:48;;;;;;;5.18;3.17;;;5.90;1.00;;;;;;5028198;28;20709;-84
2022/12/28 09:48:26;;;;;;;4.95;2.80;;;6.00;1.00;;;;;;5038397;28;21023;-85
2022/12/28 09:50:55;;;;;;;4.32;2.90;;;6.10;1.00;;;;;;5039066;28;20298;-84
2022/12/28 09:53:30;;;;;;;4.95;3.15;;;6.10;1.00;;;;;;5021259;28;20265;-85
2022/12/28 09:56:24;;;;;;;4.70;2.67;;;6.10;1.00;;;;;;5028184;28;20245;-85
2022/12/28 09:58:54;;;;;;;4.95;2.60;;;6.10;1.00;;;;;;5037262;28;20222;-85
2022/12/28 10:01:27;;;;;;;6.32;3.05;;;6.20;1.00;;;;;;5031152;28;21101;-84
2022/12/28 10:04:11;;;;;;;4.57;2.60;;;6.30;1.00;;;;;;5037720;28;20230;-84
2022/12/28 10:06:44;;;;;;;6.93;4.38;;;6.40;1.00;;;;;;5166696;22;20236;-85
2022/12/28 10:09:25;;;;;;;5.95;2.80;;;6.50;1.00;;;;;;5067704;27;20236;-85
2022/12/28 10:11:55;;;;;;;5.22;2.63;;;6.60;1.00;;;;;;5079630;27;20833;-85
2022/12/28 10:14:32;;;;;;;4.80;2.65;;;6.60;1.00;;;;;;5074342;27;20811;-84
2022/12/28 10:17:06;;;;;;;5.20;3.20;;;6.70;1.00;;;;;;5092873;27;20332;-78
2022/12/28 10:19:41;;;;;;;4.55;2.80;;;6.70;1.00;;;;;;5070191;28;20244;-81
2022/12/28 10:22:15;;;;;;;6.30;3.55;;;6.80;1.00;;;;;;5078026;27;20244;-79
2022/12/28 10:24:45;;;;;;;5.10;3.00;;;6.80;1.00;;;;;;5077650;27;20256;-81
2022/12/28 10:27:32;;;;;;;4.90;3.03;;;6.90;1.00;;;;;;5060164;28;20230;-81
2022/12/28 10:30:22;;;;;;;4.50;2.60;;;6.90;1.00;;;;;;5057186;28;20240;-80
2022/12/28 10:32:53;;;;;;;4.93;2.95;;;6.90;1.00;;;;;;5073155;28;20360;-79
2022/12/28 10:35:26;;;;;;;6.18;3.40;;;7.00;1.00;;;;;;5073223;27;20359;-81
2022/12/28 10:38:03;;;;;;;5.35;3.00;;;7.00;1.00;;;;;;5078178;27;20235;-82
2022/12/28 10:40:35;;;;;;;5.28;2.95;;;7.00;1.00;;;;;;5081490;28;20236;-81
2022/12/28 10:43:02;;;;;;;4.72;3.05;;;6.90;1.00;;;;;;5081520;27;20233;-80
2022/12/28 10:45:38;;;;;;;10.30;3.42;;;6.90;1.00;;;;;;5076427;28;20785;-82
2022/12/28 10:48:14;;;;;;;4.88;3.00;;;6.90;1.00;;;;;;5072394;27;20245;-81
2022/12/28 10:50:46;;;;;;;5.93;3.78;;;6.80;1.00;;;;;;5077479;28;20267;-81
2022/12/28 10:53:24;;;;;;;4.85;3.22;;;6.80;1.00;;;;;;5065924;27;20234;-80
2022/12/28 10:56:05;;;;;;;4.97;3.28;;;6.70;1.00;;;;;;5069549;27;20241;-80
2022/12/28 10:58:35;;;;;;;6.03;3.97;;;6.80;1.00;;;;;;5067363;27;20729;-81
2022/12/28 11:01:07;;;;;;;5.35;3.42;;;6.80;1.00;;;;;;5064390;28;20308;-80
2022/12/28 11:03:38;;;;;;;8.23;3.83;;;6.80;1.00;;;;;;5057329;28;20237;-81
2022/12/28 11:06:15;;;;;;;6.07;3.60;;;6.90;1.00;;;;;;5062930;28;20260;-83
2022/12/28 11:08:45;;;;;;;8.60;3.88;;;6.90;1.00;;;;;;5090099;28;21611;-83
2022/12/28 11:11:24;;;;;;;6.10;3.65;;;7.00;1.00;;;;;;5071980;28;20233;-79
2022/12/28 11:13:56;;;;;;;5.90;3.65;;;7.00;1.00;;;;;;5079266;28;20245;-79
2022/12/28 11:16:23;;;;;;;6.50;3.40;;;7.00;1.00;;;;;;5079021;27;20268;-82
2022/12/28 11:18:53;;;;;;;5.25;3.20;;;7.10;1.00;;;;;;5075540;27;20245;-81
2022/12/28 11:21:24;;;;;;;5.53;3.22;;;7.10;1.00;;;;;;5063531;28;20320;-81
2022/12/28 11:23:53;;;;;;;6.82;3.80;;;7.20;1.00;;;;;;5057232;27;20246;-81
2022/12/28 11:26:21;;;;;;;5.50;3.00;;;7.30;1.00;;;;;;5073120;27;20225;-81
2022/12/28 11:28:52;;;;;;;6.50;3.67;;;7.30;1.00;;;;;;5083100;27;20263;-82
2022/12/28 11:31:24;;;;;;;4.60;2.72;;;7.40;1.00;;;;;;5060055;28;20214;-81
2022/12/28 11:34:02;;;;;;;6.82;3.47;;;7.50;1.00;;;;;;5074628;27;20249;-81
2022/12/28 11:36:32;;;;;;;5.88;3.72;;;7.60;1.00;;;;;;5065222;28;20248;-82
2022/12/28 11:41:49;;;;;;;6.65;3.78;;;7.70;1.00;;;;;;5140582;22;20243;-81
2022/12/28 11:44:44;;;;;;;5.00;3.00;;;7.90;1.00;;;;;;5052641;28;20238;-81
2022/12/28 11:47:31;;;;;;;5.45;3.60;;;8.10;1.00;;;;;;5059441;28;20332;-81
2022/12/28 11:50:33;;;;;;;4.60;2.80;;;8.30;1.00;;;;;;5058396;28;21135;-80
2022/12/28 11:53:02;;;;;;;4.60;2.92;;;8.30;1.00;;;;;;5053926;28;20250;-81
2022/12/28 11:56:05;;;;;;;4.60;2.97;;;8.30;1.00;;;;;;5056672;28;20250;-80
2022/12/28 11:59:14;;;;;;;7.25;3.00;;;8.40;1.00;;;;;;5032114;28;20658;-82
2022/12/28 12:01:53;;;;;;;5.72;3.42;;;8.60;1.00;;;;;;5045643;28;20233;-82
2022/12/28 12:04:46;;;;;;;5.03;3.70;;;8.60;1.00;;;;;;5053467;28;20240;-81
2022/12/28 12:07:23;;;;;;;5.82;2.70;;;8.70;1.00;;;;;;5051534;28;20465;-80
2022/12/28 12:10:27;;;;;;;6.65;3.40;;;8.70;1.00;;;;;;5052394;28;20300;-80
2022/12/28 12:12:57;;;;;;;4.85;2.63;;;8.70;1.00;;;;;;5062655;28;20429;-81
2022/12/28 12:15:32;;;;;;;5.70;3.50;;;8.80;1.00;;;;;;5061540;28;20246;-80
2022/12/28 12:18:04;;;;;;;4.90;2.80;;;8.80;1.00;;;;;;5061450;28;20480;-81
2022/12/28 12:20:47;;;;;;;4.55;2.58;;;9.10;1.00;;;;;;5060936;28;20445;-83
2022/12/28 12:23:31;;;;;;;5.85;3.08;;;9.30;1.00;;;;;;5055600;28;20233;-82
2022/12/28 12:26:26;;;;;;;5.53;3.10;;;9.40;1.00;;;;;;5056306;28;20222;-82
2022/12/28 12:29:06;;;;;;;5.03;2.80;;;9.40;1.00;;;;;;5056897;28;20443;-81
2022/12/28 12:31:46;;;;;;;5.70;2.80;;;9.40;1.00;;;;;;5054682;28;20909;-80
2022/12/28 12:34:20;;;;;;;4.93;3.00;;;9.30;1.00;;;;;;5041331;28;20757;-80
2022/12/28 12:37:14;;;;;;;6.43;3.10;;;9.90;1.00;;;;;;5049068;28;20957;-81
2022/12/28 12:40:16;;;;;;;5.67;3.37;;;11.30;1.00;;;;;;5045063;28;20475;-82
2022/12/28 12:42:59;;;;;;;5.10;2.70;;;12.30;1.00;;;;;;5063564;28;20456;-83
2022/12/28 12:45:34;;;;;;;5.10;2.63;;;12.20;1.00;;;;;;5060045;28;20579;-83
2022/12/28 12:48:18;;;;;;;7.73;2.83;;;11.80;1.00;;;;;;5062349;28;20483;-83
2022/12/28 12:51:16;;;;;;;6.50;2.90;;;11.20;1.00;;;;;;5057608;28;20492;-83
2022/12/28 12:54:09;;;;;;;5.27;2.90;;;10.60;1.00;;;;;;5053699;28;20457;-83
2022/12/28 12:56:47;;;;;;;5.00;2.40;;;10.40;1.00;;;;;;5061980;28;20441;-81
2022/12/28 12:59:47;;;;;;;6.13;2.73;;;10.10;1.00;;;;;;5064939;28;20392;-83
2022/12/28 13:02:47;;;;;;;7.27;3.73;;;10.10;1.00;;;;;;5076393;28;20461;-84
2022/12/28 13:05:25;;;;;;;6.30;3.00;;;10.30;1.00;;;;;;5053842;28;20449;-82
2022/12/28 13:07:55;;;;;;;5.57;3.20;;;10.50;1.00;;;;;;5073377;28;20441;-84
2022/12/28 13:10:37;;;;;;;;;;;;;;;;;;;;;
2022/12/28 13:13:15;;;;;;;5.20;2.57;;;11.40;1.00;;;;;;5053872;28;39137;-84
2022/12/28 13:15:45;;;;;;;7.47;2.63;;;12.90;1.00;;;;;;5057347;28;20617;-83
2022/12/28 13:18:23;;;;;;;4.77;2.43;;;13.00;1.00;;;;;;5059839;28;20432;-86
2022/12/28 13:21:17;;;;;;;4.60;2.60;;;12.50;1.00;;;;;;5064158;28;20440;-83
2022/12/28 13:23:45;;;;;;;5.03;2.70;;;12.00;1.00;;;;;;5065029;28;20472;-85
2022/12/28 13:26:14;;;;;;;6.50;2.83;;;11.30;1.00;;;;;;5062572;28;20471;-84
2022/12/28 13:28:50;;;;;;;4.47;2.80;;;10.90;1.00;;;;;;5066605;28;20467;-84
2022/12/28 13:31:48;;;;;;;7.67;3.10;;;10.60;1.00;;;;;;5058665;28;21186;-85
2022/12/28 13:34:23;;;;;;;5.03;2.80;;;10.40;1.00;;;;;;5066220;28;20478;-85
2022/12/28 13:36:55;;;;;;;5.70;2.47;;;10.20;1.00;;;;;;5066534;28;20471;-85
2022/12/28 13:39:31;;;;;;;6.63;3.07;;;10.10;1.00;;;;;;5067755;28;20555;-85
2022/12/28 13:42:23;;;;;;;6.57;2.70;;;9.90;1.00;;;;;;5067247;28;20442;-84
2022/12/28 13:44:54;;;;;;;5.90;2.93;;;9.80;1.00;;;;;;5077690;28;20434;-84
2022/12/28 13:47:31;;;;;;;7.40;2.57;;;9.70;1.00;;;;;;5066701;28;20450;-84
2022/12/28 13:50:08;;;;;;;4.50;2.57;;;9.60;1.00;;;;;;5066367;28;20456;-84
2022/12/28 13:52:52;;;;;;;5.00;2.87;;;9.50;1.00;;;;;;5184206;23;20409;-84
2022/12/28 13:55:25;;;;;;;6.23;3.10;;;9.40;1.00;;;;;;5073708;22;20450;-84
2022/12/28 14:01:08;;;;;;;6.80;3.30;;;9.30;1.00;;;;;;5230913;22;20430;-82
2022/12/28 14:03:49;;;;;;;7.50;3.20;;;9.30;1.00;;;;;;5078627;28;20520;-82
2022/12/28 14:06:23;;;;;;;5.40;2.80;;;9.20;1.00;;;;;;5084744;28;20466;-83
2022/12/28 14:08:53;;;;;;;5.87;2.97;;;9.10;1.00;;;;;;5090398;28;20422;-82
2022/12/28 14:11:24;;;;;;;6.20;3.60;;;9.10;1.00;;;;;;5073008;28;20437;-83
2022/12/28 14:13:56;;;;;;;8.33;2.87;;;9.00;1.00;;;;;;5080336;28;20416;-84
2022/12/28 14:16:26;;;;;;;5.70;3.00;;;9.00;1.00;;;;;;5086771;28;20424;-83
2022/12/28 14:18:55;;;;;;;9.18;3.17;;;8.90;1.00;;;;;;5073284;28;20421;-84
2022/12/28 14:21:35;;;;;;;5.80;2.87;;;8.80;1.00;;;;;;5089421;28;20248;-83
2022/12/28 14:24:10;;;;;;;8.55;3.75;;;8.80;1.00;;;;;;5085133;28;20416;-84
2022/12/28 14:26:44;;;;;;;6.07;3.30;;;8.80;1.00;;;;;;5090041;28;20238;-79
2022/12/28 14:29:27;;;;;;;5.97;3.15;;;8.80;1.00;;;;;;5088990;28;20978;-82
2022/12/28 14:31:57;;;;;;;6.50;2.97;;;8.70;1.00;;;;;;5087351;28;20239;-82
2022/12/28 14:34:31;;;;;;;6.60;3.30;;;8.70;1.00;;;;;;5088977;28;20209;-82
2022/12/28 14:37:01;;;;;;;4.90;3.30;;;8.70;1.00;;;;;;5082595;28;20461;-81
2022/12/28 14:39:35;;;;;;;6.50;3.00;;;8.70;1.00;;;;;;5074226;28;20248;-83
2022/12/28 14:42:06;;;;;;;6.63;2.85;;;8.60;1.00;;;;;;5078658;28;20217;-83
2022/12/28 14:44:37;;;;;;;6.07;3.53;;;8.60;1.00;;;;;;5084597;28;20273;-85
2022/12/28 14:47:32;;;;;;;6.22;3.05;;;8.60;1.00;;;;;;5085835;28;20240;-82
2022/12/28 14:50:16;;;;;;;5.35;3.20;;;8.50;1.00;;;;;;5080932;28;20237;-84
2022/12/28 14:52:46;;;;;;;5.00;2.75;;;8.50;1.00;;;;;;5085008;28;20213;-82
2022/12/28 14:55:30;;;;;;;5.10;3.03;;;8.50;1.00;;;;;;5083001;28;20228;-83
2022/12/28 14:58:09;;;;;;;5.45;3.05;;;8.50;1.00;;;;;;5076958;28;20728;-84
2022/12/28 15:00:37;;;;;;;5.03;3.08;;;8.50;1.00;;;;;;5080385;28;20315;-84
2022/12/28 15:03:17;;;;;;;5.32;3.00;;;8.40;1.00;;;;;;5082247;28;20245;-80
2022/12/28 15:05:49;;;;;;;4.80;3.20;;;8.40;1.00;;;;;;5072581;28;20239;-80
2022/12/28 15:08:17;;;;;;;6.03;3.15;;;8.40;1.00;;;;;;5079443;28;21127;-81
2022/12/28 15:10:55;;;;;;;5.75;3.70;;;8.50;1.00;;;;;;5081172;28;20225;-83
2022/12/28 15:13:26;;;;;;;5.38;3.47;;;8.50;1.00;;;;;;5063513;28;20212;-82